Time;durP1;ratioP1;P1;durP2;ratioP2;P2;SDS_P1;SDS_P2;PMS_P1;PMS_P2;Temp;Humidity;BMP_temperature;BMP_pressure;BME280_temperature;BME280_humidity;BME280_pressure;Samples;Min_cycle;Max_cycle;Signal;HPM_P1;HPM_P2
2021/07/18 00:01:14;;;;;;;36.33;20.40;;;17.20;94.30;;;;;;6217971;23;20059;-85
2021/07/18 00:03:40;;;;;;;30.70;19.80;;;17.20;94.50;;;;;;6219427;23;20012;-86
2021/07/18 00:06:05;;;;;;;32.47;21.42;;;17.20;94.60;;;;;;6192619;23;20004;-85
2021/07/18 00:08:31;;;;;;;35.80;21.80;;;17.20;95.00;;;;;;6192805;23;20012;-86
2021/07/18 00:10:57;;;;;;;25.50;18.73;;;17.10;94.90;;;;;;6219476;23;19997;-85
2021/07/18 00:13:22;;;;;;;26.08;19.42;;;17.10;94.80;;;;;;6219194;23;20000;-85
2021/07/18 00:15:49;;;;;;;36.63;20.77;;;17.10;94.80;;;;;;6217765;23;20055;-85
2021/07/18 00:18:17;;;;;;;31.33;20.02;;;17.00;94.70;;;;;;6219257;23;20080;-86
2021/07/18 00:20:44;;;;;;;31.45;20.15;;;17.00;95.20;;;;;;6219758;23;20644;-85
2021/07/18 00:23:10;;;;;;;30.83;19.60;;;17.00;95.70;;;;;;6219225;23;20000;-85
2021/07/18 00:25:35;;;;;;;33.30;21.15;;;17.10;95.60;;;;;;6219491;23;20072;-86
2021/07/18 00:28:02;;;;;;;35.30;21.55;;;17.10;96.30;;;;;;6219772;23;20015;-85
2021/07/18 00:30:28;;;;;;;31.15;20.50;;;17.10;96.40;;;;;;6217615;23;19999;-86
2021/07/18 00:32:54;;;;;;;35.85;21.60;;;17.10;96.80;;;;;;6192504;23;20091;-85
2021/07/18 00:35:20;;;;;;;34.63;23.60;;;17.20;96.90;;;;;;6193046;23;20294;-85
2021/07/18 00:37:46;;;;;;;33.35;22.75;;;17.20;97.10;;;;;;6218890;23;20001;-85
2021/07/18 00:40:12;;;;;;;35.88;20.55;;;17.20;96.90;;;;;;6218586;23;20001;-84
2021/07/18 00:42:38;;;;;;;36.33;21.63;;;17.20;96.90;;;;;;6219476;23;20100;-85
2021/07/18 00:45:05;;;;;;;31.67;21.02;;;17.20;96.90;;;;;;6217395;23;20504;-84
2021/07/18 00:47:31;;;;;;;35.75;22.83;;;17.20;96.90;;;;;;6219124;23;20072;-85
2021/07/18 00:49:57;;;;;;;31.35;21.42;;;17.20;97.00;;;;;;6217897;23;20038;-84
2021/07/18 00:52:23;;;;;;;29.08;20.05;;;17.10;97.10;;;;;;6192488;23;20009;-85
2021/07/18 00:54:49;;;;;;;36.15;20.13;;;17.10;97.20;;;;;;6219113;23;20059;-85
2021/07/18 00:57:15;;;;;;;31.83;19.80;;;17.00;97.00;;;;;;6218876;23;20020;-85
2021/07/18 00:59:42;;;;;;;28.25;18.98;;;17.00;97.20;;;;;;6217290;23;20362;-85
2021/07/18 01:02:08;;;;;;;34.67;20.55;;;17.00;97.10;;;;;;6192704;23;20051;-84
2021/07/18 01:04:34;;;;;;;28.80;18.98;;;17.00;97.90;;;;;;6219315;23;20071;-85
2021/07/18 01:07:00;;;;;;;30.40;18.85;;;17.00;97.80;;;;;;6218960;23;20369;-85
2021/07/18 01:09:27;;;;;;;26.73;19.33;;;16.90;98.00;;;;;;6219021;23;20001;-85
2021/07/18 01:11:53;;;;;;;30.10;18.80;;;16.80;98.00;;;;;;6218762;23;19996;-85
2021/07/18 01:14:19;;;;;;;32.65;19.20;;;16.80;98.00;;;;;;6192090;23;20031;-85
2021/07/18 01:16:45;;;;;;;30.38;18.10;;;16.70;98.00;;;;;;6217357;23;19997;-85
2021/07/18 01:19:12;;;;;;;25.52;19.02;;;16.50;98.00;;;;;;6192474;23;20009;-85
2021/07/18 01:21:39;;;;;;;28.92;18.50;;;16.50;98.00;;;;;;6218517;23;20098;-84
2021/07/18 01:24:05;;;;;;;32.60;18.33;;;16.30;98.00;;;;;;6192443;23;20008;-85
2021/07/18 01:26:32;;;;;;;28.92;17.80;;;16.20;97.90;;;;;;6191838;23;20005;-85
2021/07/18 01:28:57;;;;;;;25.33;16.40;;;16.10;98.00;;;;;;6218440;23;20018;-84
2021/07/18 01:31:23;;;;;;;24.50;15.63;;;15.90;98.00;;;;;;6217192;23;20000;-84
2021/07/18 01:33:49;;;;;;;29.83;17.02;;;15.80;97.80;;;;;;6218360;23;20058;-85
2021/07/18 01:36:14;;;;;;;25.02;17.13;;;15.80;97.20;;;;;;6218639;23;20001;-85
2021/07/18 01:38:40;;;;;;;26.60;16.75;;;15.70;97.70;;;;;;6192691;23;20012;-85
2021/07/18 01:41:06;;;;;;;30.42;18.25;;;15.60;97.40;;;;;;6218906;23;20298;-85
2021/07/18 01:43:31;;;;;;;30.45;18.00;;;15.50;97.30;;;;;;6218418;23;20347;-85
2021/07/18 01:45:57;;;;;;;21.25;15.55;;;15.40;96.60;;;;;;6217081;23;20031;-85
2021/07/18 01:48:23;;;;;;;29.17;17.52;;;15.30;96.70;;;;;;6192288;23;20008;-85
2021/07/18 01:50:49;;;;;;;26.42;15.95;;;15.30;95.90;;;;;;6218770;23;20350;-84
2021/07/18 01:53:14;;;;;;;33.22;18.27;;;15.30;96.40;;;;;;6220590;23;20025;-84
2021/07/18 01:55:40;;;;;;;27.95;16.95;;;15.20;96.20;;;;;;6220319;23;20000;-83
2021/07/18 01:58:06;;;;;;;25.13;16.65;;;15.20;96.60;;;;;;6194293;23;20012;-86
2021/07/18 02:00:32;;;;;;;22.80;15.18;;;15.00;96.50;;;;;;6192496;23;20008;-85
2021/07/18 02:02:58;;;;;;;29.23;18.50;;;14.90;96.20;;;;;;6220824;23;20076;-85
2021/07/18 02:05:24;;;;;;;28.73;18.42;;;14.80;96.30;;;;;;6220677;23;20020;-85
2021/07/18 02:07:50;;;;;;;32.25;20.25;;;14.80;95.60;;;;;;6194156;23;20061;-85
2021/07/18 02:10:18;;;;;;;39.60;19.13;;;14.80;95.50;;;;;;6218383;23;20000;-85
2021/07/18 02:12:48;;;;;;;22.77;16.65;;;14.80;95.40;;;;;;6191524;23;20012;-85
2021/07/18 02:15:16;;;;;;;36.15;18.65;;;14.80;95.50;;;;;;6216711;23;19997;-83
2021/07/18 02:17:42;;;;;;;29.63;18.30;;;14.80;94.90;;;;;;6191830;23;20008;-84
2021/07/18 02:20:12;;;;;;;26.38;16.95;;;14.90;94.90;;;;;;6191679;23;20036;-84
2021/07/18 02:22:40;;;;;;;26.20;17.23;;;14.80;95.20;;;;;;6192078;23;20323;-84
2021/07/18 02:25:07;;;;;;;24.02;15.55;;;14.80;95.10;;;;;;6217923;23;20366;-83
2021/07/18 02:27:32;;;;;;;28.10;18.83;;;14.60;95.20;;;;;;6191978;23;20009;-85
2021/07/18 02:29:58;;;;;;;25.75;16.83;;;14.60;95.00;;;;;;6216861;23;20008;-85
2021/07/18 02:32:23;;;;;;;24.20;16.65;;;14.60;94.70;;;;;;6193058;23;20054;-85
2021/07/18 02:34:49;;;;;;;28.30;17.60;;;14.50;94.70;;;;;;6219060;23;20265;-86
2021/07/18 02:37:15;;;;;;;26.27;17.02;;;14.40;95.20;;;;;;6219715;23;20076;-85
2021/07/18 02:39:40;;;;;;;26.35;16.30;;;14.30;95.10;;;;;;6219838;23;20087;-85
2021/07/18 02:42:06;;;;;;;23.05;16.27;;;14.30;94.70;;;;;;6220024;23;20032;-85
2021/07/18 02:44:32;;;;;;;27.27;16.13;;;14.40;94.00;;;;;;6218515;23;20067;-85
2021/07/18 02:46:58;;;;;;;25.38;16.25;;;14.50;93.80;;;;;;6193849;23;20008;-84
2021/07/18 02:49:23;;;;;;;25.88;16.23;;;14.50;93.90;;;;;;6220424;23;20408;-84
2021/07/18 02:51:49;;;;;;;30.50;17.75;;;14.60;94.00;;;;;;6194127;23;20354;-84
2021/07/18 02:54:15;;;;;;;20.95;15.35;;;14.50;94.00;;;;;;6219931;23;20008;-84
2021/07/18 02:56:40;;;;;;;26.23;17.05;;;14.50;94.30;;;;;;6219949;23;19996;-86
2021/07/18 02:59:06;;;;;;;24.83;16.00;;;14.50;94.00;;;;;;6220367;23;20313;-86
2021/07/18 03:01:31;;;;;;;22.65;14.95;;;14.40;94.00;;;;;;6218202;23;20000;-86
2021/07/18 03:03:57;;;;;;;21.27;13.85;;;14.40;94.20;;;;;;6219146;23;20007;-86
2021/07/18 03:06:23;;;;;;;25.20;15.10;;;14.30;94.20;;;;;;6219924;23;20031;-86
2021/07/18 03:08:48;;;;;;;25.17;15.23;;;14.20;94.40;;;;;;6219239;23;20255;-85
2021/07/18 03:11:14;;;;;;;22.23;14.35;;;14.10;93.90;;;;;;6194129;23;20020;-85
2021/07/18 03:13:40;;;;;;;21.33;14.82;;;14.10;94.00;;;;;;6219660;23;20005;-85
2021/07/18 03:16:05;;;;;;;18.98;13.18;;;14.00;94.30;;;;;;6219009;23;20000;-85
2021/07/18 03:18:31;;;;;;;18.38;12.60;;;14.00;94.30;;;;;;6219957;23;20001;-84
2021/07/18 03:20:57;;;;;;;26.63;16.08;;;13.90;93.80;;;;;;6220119;23;20014;-85
2021/07/18 03:23:22;;;;;;;25.27;14.48;;;13.90;94.30;;;;;;6219783;23;20019;-85
2021/07/18 03:25:48;;;;;;;19.73;13.20;;;13.80;94.40;;;;;;6220221;23;20437;-84
2021/07/18 03:28:14;;;;;;;20.13;13.50;;;13.70;94.00;;;;;;6193360;23;20010;-84
2021/07/18 03:30:39;;;;;;;24.95;15.35;;;13.80;93.80;;;;;;6218509;23;20112;-85
2021/07/18 03:33:05;;;;;;;23.35;14.10;;;13.80;93.80;;;;;;6219102;23;20000;-84
2021/07/18 03:35:31;;;;;;;21.75;13.60;;;13.70;94.10;;;;;;6193317;23;20004;-85
2021/07/18 03:37:56;;;;;;;22.33;13.25;;;13.70;94.10;;;;;;6219717;23;19997;-85
2021/07/18 03:40:22;;;;;;;18.88;12.60;;;13.60;94.50;;;;;;6219881;23;20370;-85
2021/07/18 03:42:48;;;;;;;19.77;14.05;;;13.50;94.50;;;;;;6220231;23;20646;-84
2021/07/18 03:45:14;;;;;;;28.02;14.77;;;13.40;94.20;;;;;;6217725;23;20040;-84
2021/07/18 03:47:40;;;;;;;21.70;13.70;;;13.50;94.10;;;;;;6193157;23;20401;-84
2021/07/18 03:50:08;;;;;;;32.28;12.60;;;13.50;93.70;;;;;;6192970;23;20015;-85
2021/07/18 03:52:33;;;;;;;22.15;13.23;;;13.40;94.20;;;;;;6219279;23;20071;-84
2021/07/18 03:54:59;;;;;;;23.70;13.02;;;13.40;93.90;;;;;;6219523;23;20036;-84
2021/07/18 03:57:24;;;;;;;22.25;13.15;;;13.30;94.10;;;;;;6219539;23;20008;-84
2021/07/18 03:59:51;;;;;;;18.30;11.73;;;13.30;94.20;;;;;;6218392;23;20008;-85
2021/07/18 04:02:17;;;;;;;21.30;11.93;;;13.20;94.50;;;;;;6219205;23;20000;-85
2021/07/18 04:04:43;;;;;;;19.80;11.75;;;13.10;94.30;;;;;;6193455;23;20094;-84
2021/07/18 04:07:08;;;;;;;21.60;13.10;;;13.10;94.30;;;;;;6219736;23;20011;-84
2021/07/18 04:09:34;;;;;;;20.42;11.95;;;13.10;93.80;;;;;;6219520;23;20001;-85
2021/07/18 04:11:59;;;;;;;19.35;12.68;;;13.10;93.80;;;;;;6219653;23;20000;-85
2021/07/18 04:14:25;;;;;;;19.63;12.77;;;13.10;93.90;;;;;;6192171;23;20009;-84
2021/07/18 04:16:51;;;;;;;22.60;11.88;;;13.10;93.70;;;;;;6190383;23;20000;-84
2021/07/18 04:19:16;;;;;;;15.88;10.38;;;13.20;93.40;;;;;;6219159;23;20004;-84
2021/07/18 04:21:42;;;;;;;20.13;13.40;;;13.20;93.40;;;;;;6219135;23;20415;-84
2021/07/18 04:24:07;;;;;;;21.60;12.25;;;13.20;93.70;;;;;;6219234;23;20000;-84
2021/07/18 04:26:33;;;;;;;20.38;12.90;;;13.30;93.40;;;;;;6219105;23;20024;-84
2021/07/18 04:28:59;;;;;;;15.98;11.32;;;13.20;93.70;;;;;;6219161;23;20011;-85
2021/07/18 04:31:25;;;;;;;21.13;12.30;;;13.20;93.90;;;;;;6217710;23;20004;-84
2021/07/18 04:33:50;;;;;;;17.13;11.63;;;13.10;93.70;;;;;;6219210;23;20008;-84
2021/07/18 04:36:17;;;;;;;24.25;13.02;;;13.10;93.80;;;;;;6219591;23;20023;-84
2021/07/18 04:38:43;;;;;;;24.08;11.80;;;13.10;93.60;;;;;;6218844;23;20071;-84
2021/07/18 04:41:08;;;;;;;16.42;11.43;;;13.20;93.60;;;;;;6192952;23;20031;-85
2021/07/18 04:43:35;;;;;;;17.42;11.90;;;13.20;93.40;;;;;;6219187;23;20005;-85
2021/07/18 04:46:00;;;;;;;15.60;10.40;;;13.10;93.70;;;;;;6217266;23;20021;-84
2021/07/18 04:48:26;;;;;;;16.48;9.40;;;13.20;93.40;;;;;;6219473;23;20247;-84
2021/07/18 04:50:52;;;;;;;22.15;11.20;;;13.20;93.40;;;;;;6218867;23;20362;-84
2021/07/18 04:53:17;;;;;;;20.98;12.07;;;13.30;93.40;;;;;;6219249;23;20071;-84
2021/07/18 04:55:43;;;;;;;15.65;10.00;;;13.30;93.60;;;;;;6218821;23;20075;-84
2021/07/18 04:58:08;;;;;;;18.90;11.15;;;13.30;93.40;;;;;;6218906;23;19997;-84
2021/07/18 05:00:34;;;;;;;20.92;10.85;;;13.30;93.40;;;;;;6217314;23;20016;-84
2021/07/18 05:03:00;;;;;;;15.45;8.88;;;13.30;93.40;;;;;;6219239;23;20001;-84
2021/07/18 05:05:25;;;;;;;18.45;11.25;;;13.30;93.60;;;;;;6218855;23;20001;-84
2021/07/18 05:07:59;;;;;;;13.13;8.60;;;13.30;93.50;;;;;;6218936;23;20005;-84
2021/07/18 05:10:25;;;;;;;16.55;9.77;;;13.30;93.50;;;;;;6218889;23;20005;-84
2021/07/18 05:12:53;;;;;;;17.13;9.23;;;13.40;93.60;;;;;;6218970;23;20011;-84
2021/07/18 05:15:22;;;;;;;15.10;10.30;;;13.40;93.60;;;;;;6217141;23;20042;-84
2021/07/18 05:17:48;;;;;;;17.85;9.35;;;13.40;93.70;;;;;;6192802;23;20000;-84
2021/07/18 05:20:15;;;;;;;13.93;8.85;;;13.50;93.60;;;;;;6192770;23;20066;-84
2021/07/18 05:22:41;;;;;;;16.80;8.70;;;13.50;93.90;;;;;;6218831;23;20011;-84
2021/07/18 05:25:09;;;;;;;14.43;9.02;;;13.50;93.90;;;;;;6193040;23;20010;-84
2021/07/18 05:27:36;;;;;;;13.02;8.10;;;13.60;93.80;;;;;;6218211;23;20147;-84
2021/07/18 05:30:03;;;;;;;14.20;8.93;;;13.60;93.90;;;;;;6217348;23;20005;-84
2021/07/18 05:32:29;;;;;;;17.77;9.23;;;13.70;93.70;;;;;;6192083;23;20020;-83
2021/07/18 05:34:55;;;;;;;13.60;8.98;;;13.70;94.00;;;;;;6218743;23;20004;-83
2021/07/18 05:37:20;;;;;;;15.07;9.07;;;13.80;94.00;;;;;;6218572;23;20001;-83
2021/07/18 05:39:46;;;;;;;14.07;9.00;;;13.80;94.00;;;;;;6218984;23;20005;-82
2021/07/18 05:42:12;;;;;;;16.50;10.15;;;14.00;93.50;;;;;;6218174;23;20005;-83
2021/07/18 05:44:38;;;;;;;14.57;8.88;;;14.00;94.20;;;;;;6217174;23;20012;-83
2021/07/18 05:47:04;;;;;;;12.90;8.10;;;14.10;94.10;;;;;;6218759;23;20005;-82
2021/07/18 05:49:29;;;;;;;16.67;8.82;;;14.20;93.70;;;;;;6218659;23;20012;-85
2021/07/18 05:51:55;;;;;;;13.10;7.43;;;14.30;94.70;;;;;;6218871;23;20224;-85
2021/07/18 05:54:21;;;;;;;13.38;7.53;;;14.20;95.30;;;;;;6218745;23;19996;-84
2021/07/18 05:56:46;;;;;;;12.07;7.47;;;14.30;95.50;;;;;;6192162;23;20001;-85
2021/07/18 05:59:12;;;;;;;15.02;8.13;;;14.40;95.90;;;;;;6192316;23;20039;-84
2021/07/18 06:01:38;;;;;;;15.23;7.85;;;14.50;96.80;;;;;;6216706;23;20008;-84
2021/07/18 06:04:03;;;;;;;16.13;7.68;;;14.50;97.10;;;;;;6189664;23;20016;-83
2021/07/18 06:06:29;;;;;;;13.27;7.78;;;14.70;97.00;;;;;;6216498;23;20015;-84
2021/07/18 06:08:55;;;;;;;16.10;9.20;;;14.80;98.00;;;;;;6217205;23;20005;-84
2021/07/18 06:11:22;;;;;;;15.15;7.80;;;14.90;98.00;;;;;;6189034;23;20012;-84
2021/07/18 06:13:48;;;;;;;14.60;8.25;;;15.00;98.00;;;;;;6214992;23;20076;-84
2021/07/18 06:16:14;;;;;;;20.02;9.82;;;15.10;98.00;;;;;;6212735;23;20067;-84
2021/07/18 06:18:40;;;;;;;13.98;8.45;;;15.20;98.00;;;;;;6215858;23;20385;-84
2021/07/18 06:21:05;;;;;;;16.98;8.10;;;15.30;98.00;;;;;;6214086;23;20036;-84
2021/07/18 06:23:31;;;;;;;14.45;8.10;;;15.30;98.00;;;;;;6216550;23;20007;-84
2021/07/18 06:25:57;;;;;;;20.80;8.25;;;15.50;98.00;;;;;;6218640;23;20004;-84
2021/07/18 06:28:22;;;;;;;12.18;6.50;;;15.60;98.00;;;;;;6218331;23;20004;-84
2021/07/18 06:30:48;;;;;;;15.40;7.35;;;15.70;98.00;;;;;;6217249;23;19997;-84
2021/07/18 06:33:13;;;;;;;11.07;7.32;;;15.70;98.00;;;;;;6218356;23;20310;-84
2021/07/18 06:35:39;;;;;;;12.13;6.57;;;15.90;98.00;;;;;;6191027;23;20008;-84
2021/07/18 06:38:05;;;;;;;12.93;6.50;;;16.10;98.00;;;;;;6216983;23;20001;-84
2021/07/18 06:40:31;;;;;;;11.93;6.18;;;16.20;98.00;;;;;;6192989;23;20008;-84
2021/07/18 06:42:57;;;;;;;9.60;5.70;;;16.30;98.00;;;;;;6219849;23;20393;-85
2021/07/18 06:45:23;;;;;;;9.43;5.40;;;16.50;98.00;;;;;;6217798;23;20013;-85
2021/07/18 06:47:49;;;;;;;13.05;5.75;;;16.60;98.00;;;;;;6217897;23;20019;-85
2021/07/18 06:50:15;;;;;;;8.10;4.57;;;16.80;98.00;;;;;;6219682;23;20001;-85
2021/07/18 06:52:41;;;;;;;7.78;4.60;;;17.00;98.00;;;;;;6219557;23;20043;-85
2021/07/18 06:55:07;;;;;;;12.38;5.00;;;17.00;97.20;;;;;;6193684;23;20011;-85
2021/07/18 06:57:33;;;;;;;10.88;5.05;;;17.10;98.00;;;;;;6193756;23;20394;-85
2021/07/18 06:59:58;;;;;;;8.35;4.57;;;17.20;96.90;;;;;;6218138;23;20008;-85
2021/07/18 07:02:24;;;;;;;7.65;4.47;;;17.40;97.50;;;;;;6219698;23;20384;-85
2021/07/18 07:04:50;;;;;;;9.65;4.60;;;17.60;96.70;;;;;;6219736;23;20001;-85
2021/07/18 07:07:15;;;;;;;15.73;4.63;;;17.60;95.90;;;;;;6218557;23;20004;-84
2021/07/18 07:09:41;;;;;;;10.10;5.00;;;17.50;96.10;;;;;;6217791;23;20273;-84
2021/07/18 07:12:07;;;;;;;7.20;4.28;;;17.50;96.00;;;;;;6192979;23;20096;-85
2021/07/18 07:14:33;;;;;;;7.70;4.78;;;17.50;96.10;;;;;;6216523;23;20393;-87
2021/07/18 07:16:58;;;;;;;9.68;5.18;;;17.60;96.50;;;;;;6219356;23;20001;-85
2021/07/18 07:19:24;;;;;;;11.15;5.85;;;17.80;95.30;;;;;;6218980;23;20083;-86
2021/07/18 07:21:50;;;;;;;10.98;5.78;;;17.90;95.60;;;;;;6219174;23;20001;-86
2021/07/18 07:24:15;;;;;;;10.75;5.45;;;17.90;96.30;;;;;;6193143;23;20325;-86
2021/07/18 07:26:41;;;;;;;11.57;5.90;;;17.90;96.10;;;;;;6218579;23;20009;-86
2021/07/18 07:29:07;;;;;;;8.02;5.40;;;18.00;95.90;;;;;;6218413;23;20298;-86
2021/07/18 07:31:33;;;;;;;10.48;5.32;;;18.10;96.00;;;;;;6191766;23;20005;-87
2021/07/18 07:33:59;;;;;;;10.82;5.72;;;18.40;95.80;;;;;;6218342;23;20007;-87
2021/07/18 07:36:24;;;;;;;7.20;4.03;;;18.70;94.80;;;;;;6218420;23;20004;-87
2021/07/18 07:38:50;;;;;;;11.10;4.88;;;19.40;94.10;;;;;;6192368;23;20012;-87
2021/07/18 07:41:16;;;;;;;10.55;4.57;;;20.80;90.10;;;;;;6219187;23;20268;-87
2021/07/18 07:43:41;;;;;;;9.18;3.85;;;21.60;87.90;;;;;;6219471;23;20127;-87
2021/07/18 07:46:08;;;;;;;7.05;3.53;;;22.60;84.90;;;;;;6217380;23;20013;-87
2021/07/18 07:48:34;;;;;;;6.72;3.85;;;23.30;81.20;;;;;;6219790;23;20001;-87
2021/07/18 07:51:00;;;;;;;7.95;3.65;;;23.90;80.20;;;;;;6218514;23;20000;-87
2021/07/18 07:53:26;;;;;;;6.80;3.95;;;24.20;79.60;;;;;;6219180;23;20001;-87
2021/07/18 07:55:52;;;;;;;6.22;3.50;;;24.50;77.80;;;;;;6193336;23;20362;-87
2021/07/18 07:58:18;;;;;;;11.38;4.05;;;24.50;77.20;;;;;;6190913;23;20007;-85
2021/07/18 08:00:44;;;;;;;11.82;3.35;;;24.30;77.50;;;;;;6186992;23;20045;-83
2021/07/18 08:03:09;;;;;;;7.75;3.70;;;24.40;76.80;;;;;;6192489;23;20065;-85
2021/07/18 08:05:35;;;;;;;5.72;2.67;;;24.70;77.60;;;;;;6216563;23;20000;-87
2021/07/18 08:08:02;;;;;;;9.73;2.92;;;25.30;75.50;;;;;;6219916;23;20025;-86
2021/07/18 08:10:27;;;;;;;11.30;3.25;;;25.20;73.80;;;;;;6219176;23;20011;-85
2021/07/18 08:12:53;;;;;;;10.23;4.00;;;25.30;74.60;;;;;;6218306;23;19993;-86
2021/07/18 08:15:21;;;;;;;7.65;2.95;;;25.40;74.50;;;;;;6215924;23;20011;-85
2021/07/18 08:17:47;;;;;;;7.45;2.70;;;25.10;74.50;;;;;;6214520;23;20008;-86
2021/07/18 08:20:20;;;;;;;7.85;3.22;;;25.20;75.10;;;;;;6188479;23;20008;-85
2021/07/18 08:22:48;;;;;;;6.00;3.08;;;25.50;73.50;;;;;;6214483;23;20079;-85
2021/07/18 08:25:15;;;;;;;7.18;2.65;;;24.70;75.70;;;;;;6217275;23;20092;-85
2021/07/18 08:27:59;;;;;;;6.53;2.90;;;24.30;77.30;;;;;;6218884;23;20389;-92
2021/07/18 08:30:25;;;;;;;10.35;3.45;;;25.00;76.20;;;;;;6190731;23;20437;-86
2021/07/18 08:32:51;;;;;;;7.25;2.90;;;25.30;73.90;;;;;;6218318;23;20020;-85
2021/07/18 08:35:17;;;;;;;5.63;2.70;;;25.60;73.50;;;;;;6219462;23;20028;-84
2021/07/18 08:37:43;;;;;;;5.85;2.90;;;26.30;71.30;;;;;;6218788;23;20012;-84
2021/07/18 08:40:13;;;;;;;5.97;2.63;;;27.30;70.40;;;;;;6191880;23;20012;-85
2021/07/18 08:42:40;;;;;;;14.32;3.08;;;27.90;69.80;;;;;;6218491;23;20001;-85
2021/07/18 08:45:07;;;;;;;10.88;2.90;;;28.50;68.60;;;;;;6191173;23;20038;-87
2021/07/18 08:47:34;;;;;;;6.20;2.35;;;28.80;68.00;;;;;;6218161;23;20015;-86
2021/07/18 08:49:59;;;;;;;10.13;3.58;;;28.40;68.40;;;;;;6216575;23;20085;-87
2021/07/18 08:52:26;;;;;;;6.85;2.78;;;28.00;69.00;;;;;;6218132;23;20334;-87
2021/07/18 08:54:53;;;;;;;8.00;3.67;;;27.50;71.20;;;;;;6192270;23;20054;-86
2021/07/18 08:57:22;;;;;;;6.07;3.00;;;27.00;70.00;;;;;;6219222;23;20083;-85
2021/07/18 08:59:49;;;;;;;8.18;3.17;;;26.40;71.50;;;;;;6217211;23;20075;-85
2021/07/18 09:02:15;;;;;;;7.22;2.92;;;26.60;70.40;;;;;;6216342;23;20001;-85
2021/07/18 09:04:41;;;;;;;8.27;3.47;;;26.30;71.20;;;;;;6217847;23;20001;-84
2021/07/18 09:07:14;;;;;;;6.55;2.63;;;26.20;72.50;;;;;;6217115;23;20004;-85
2021/07/18 09:09:40;;;;;;;8.07;2.88;;;26.10;73.10;;;;;;6191298;23;20009;-85
2021/07/18 09:12:08;;;;;;;5.75;2.60;;;26.30;72.50;;;;;;6216857;23;20012;-85
2021/07/18 09:14:41;;;;;;;8.93;2.60;;;26.60;71.70;;;;;;6216124;23;20353;-85
2021/07/18 09:17:22;;;;;;;4.90;2.38;;;26.80;71.40;;;;;;6218195;23;20052;-86
2021/07/18 09:19:48;;;;;;;5.05;2.25;;;27.50;70.60;;;;;;6217182;23;20008;-85
2021/07/18 09:22:23;;;;;;;7.97;2.22;;;27.90;68.70;;;;;;6216765;23;20005;-84
2021/07/18 09:25:00;;;;;;;5.75;2.33;;;27.40;69.50;;;;;;6192528;23;20012;-85
2021/07/18 09:27:28;;;;;;;4.93;2.55;;;27.70;69.60;;;;;;6218435;23;20005;-86
2021/07/18 09:30:03;;;;;;;5.28;2.40;;;28.20;67.90;;;;;;6189310;23;20062;-84
2021/07/18 09:32:30;;;;;;;5.78;2.30;;;28.50;66.90;;;;;;6218120;23;20123;-84
2021/07/18 09:34:57;;;;;;;5.88;1.98;;;29.50;66.50;;;;;;6217150;23;20031;-86
2021/07/18 09:37:26;;;;;;;6.13;2.25;;;29.80;65.50;;;;;;6216442;23;20001;-85
2021/07/18 09:39:59;;;;;;;10.52;2.35;;;29.70;64.00;;;;;;6191403;23;20042;-86
2021/07/18 09:42:39;;;;;;;7.95;2.10;;;28.40;66.10;;;;;;6217276;23;20005;-84
2021/07/18 09:45:13;;;;;;;4.97;2.20;;;27.50;69.60;;;;;;6216055;23;20012;-86
2021/07/18 09:48:00;;;;;;;6.78;2.33;;;27.20;70.30;;;;;;6215947;23;20013;-85
2021/07/18 09:50:33;;;;;;;7.63;2.05;;;26.90;69.90;;;;;;6190026;23;20367;-85
2021/07/18 09:53:18;;;;;;;7.33;2.23;;;26.80;70.30;;;;;;6217425;23;20012;-84
2021/07/18 09:56:02;;;;;;;5.40;2.47;;;26.70;72.80;;;;;;6190328;23;20005;-86
2021/07/18 09:58:29;;;;;;;4.85;2.10;;;27.10;70.80;;;;;;6217702;23;20028;-86
2021/07/18 10:00:57;;;;;;;6.22;2.33;;;26.90;69.90;;;;;;6189156;23;20401;-86
2021/07/18 10:03:24;;;;;;;10.68;2.00;;;26.90;71.60;;;;;;6217986;23;20035;-87
2021/07/18 10:06:12;;;;;;;5.43;2.28;;;27.10;70.40;;;;;;6217128;23;20001;-85
2021/07/18 10:08:46;;;;;;;10.60;2.60;;;27.10;71.40;;;;;;6218446;23;20012;-85
2021/07/18 10:11:14;;;;;;;7.03;2.17;;;28.10;68.80;;;;;;6217285;23;20100;-86
2021/07/18 10:13:42;;;;;;;5.82;2.60;;;28.60;68.40;;;;;;6191060;23;20001;-86
2021/07/18 10:16:09;;;;;;;4.55;2.13;;;29.00;66.00;;;;;;6191638;23;19997;-86
2021/07/18 10:18:36;;;;;;;6.63;2.08;;;28.20;70.10;;;;;;6219687;23;20076;-86
2021/07/18 10:21:03;;;;;;;10.05;2.20;;;28.30;65.70;;;;;;6193805;23;20008;-90
2021/07/18 10:23:33;;;;;;;4.47;1.98;;;28.60;68.60;;;;;;6219937;23;20115;-91
2021/07/18 10:26:00;;;;;;;6.40;2.40;;;28.60;69.20;;;;;;6193865;23;20013;-91
2021/07/18 10:28:26;;;;;;;9.52;2.25;;;28.90;67.10;;;;;;6220273;23;20008;-90
2021/07/18 10:30:57;;;;;;;8.00;2.08;;;28.10;67.50;;;;;;6219036;23;19993;-90
2021/07/18 10:33:23;;;;;;;8.70;2.50;;;27.20;70.20;;;;;;6220027;23;20080;-90
2021/07/18 10:35:52;;;;;;;6.25;2.50;;;26.60;70.80;;;;;;6219927;23;20334;-90
2021/07/18 10:38:23;;;;;;;6.47;2.20;;;26.50;71.80;;;;;;6193704;23;20024;-90
2021/07/18 10:40:53;;;;;;;4.15;2.10;;;26.50;72.10;;;;;;6219997;23;20024;-90
2021/07/18 10:43:40;;;;;;;6.18;2.40;;;27.20;71.10;;;;;;6219642;23;19993;-89
2021/07/18 10:46:11;;;;;;;5.68;2.00;;;28.00;70.00;;;;;;6218515;23;20008;-89
2021/07/18 10:48:47;;;;;;;11.13;2.70;;;27.90;68.50;;;;;;6192399;23;20013;-89
2021/07/18 10:51:17;;;;;;;4.88;2.38;;;27.50;69.10;;;;;;6219848;23;20377;-89
2021/07/18 10:53:43;;;;;;;5.05;2.30;;;27.40;69.80;;;;;;6220049;23;19997;-89
2021/07/18 10:56:09;;;;;;;9.65;2.33;;;27.50;69.80;;;;;;6219237;23;20100;-89
2021/07/18 10:58:46;;;;;;;4.63;2.25;;;27.70;67.30;;;;;;6220195;23;19996;-87
2021/07/18 11:01:21;;;;;;;6.32;2.42;;;27.30;68.20;;;;;;6218635;23;20073;-88
2021/07/18 11:03:48;;;;;;;4.22;2.15;;;27.00;68.10;;;;;;6219587;23;20004;-88
2021/07/18 11:06:30;;;;;;;5.95;2.38;;;27.30;68.60;;;;;;6218796;23;20046;-89
2021/07/18 11:09:19;;;;;;;5.35;2.30;;;27.10;68.70;;;;;;6219700;23;20066;-87
2021/07/18 11:11:51;;;;;;;6.63;2.58;;;27.00;67.40;;;;;;6219794;23;20001;-87
2021/07/18 11:14:35;;;;;;;6.95;2.78;;;27.20;67.90;;;;;;6193908;23;20365;-87
2021/07/18 11:17:06;;;;;;;7.18;2.92;;;27.10;68.90;;;;;;6218704;23;20000;-88
2021/07/18 11:19:35;;;;;;;7.28;2.47;;;27.10;68.10;;;;;;6192955;23;20025;-88
2021/07/18 11:22:02;;;;;;;7.43;2.00;;;27.30;68.20;;;;;;6193374;23;20008;-88
2021/07/18 11:24:55;;;;;;;6.05;2.60;;;27.70;69.30;;;;;;6219680;23;20005;-87
2021/07/18 11:27:33;;;;;;;4.10;2.33;;;27.50;65.90;;;;;;6193311;23;20018;-87
2021/07/18 11:30:01;;;;;;;6.38;2.20;;;27.80;68.60;;;;;;6218064;23;20011;-86
2021/07/18 11:32:31;;;;;;;13.13;2.70;;;27.60;65.70;;;;;;6219788;23;20001;-86
2021/07/18 11:34:58;;;;;;;5.47;2.35;;;27.50;69.70;;;;;;6219491;23;20016;-87
2021/07/18 11:37:25;;;;;;;9.55;2.40;;;27.30;69.80;;;;;;6192601;23;20076;-87
2021/07/18 11:40:00;;;;;;;5.07;2.17;;;27.60;68.90;;;;;;6192947;23;20055;-87
2021/07/18 11:42:27;;;;;;;5.63;2.38;;;27.50;69.30;;;;;;6192859;23;20008;-87
2021/07/18 11:44:54;;;;;;;5.53;2.45;;;27.40;66.80;;;;;;6217299;23;20264;-88
2021/07/18 11:47:20;;;;;;;9.50;2.75;;;27.60;69.40;;;;;;6219202;23;20036;-86
2021/07/18 11:49:51;;;;;;;6.43;2.47;;;27.90;67.70;;;;;;6219541;23;20016;-87
2021/07/18 11:52:22;;;;;;;9.90;3.30;;;27.70;65.90;;;;;;6219338;23;20420;-89
2021/07/18 11:54:48;;;;;;;6.65;2.65;;;27.40;66.10;;;;;;6218987;23;19996;-87
2021/07/18 11:57:17;;;;;;;7.05;2.72;;;26.90;68.30;;;;;;6218828;23;20079;-88
2021/07/18 11:59:46;;;;;;;6.03;2.40;;;26.60;70.80;;;;;;6216771;23;20004;-88
2021/07/18 12:02:13;;;;;;;9.57;2.70;;;26.80;69.10;;;;;;6192607;23;20005;-88
2021/07/18 12:04:40;;;;;;;7.40;2.40;;;26.90;71.30;;;;;;6218600;23;20004;-91
2021/07/18 12:07:08;;;;;;;6.72;2.30;;;27.00;68.30;;;;;;6217928;23;20001;-89
2021/07/18 12:09:42;;;;;;;5.30;2.40;;;26.60;68.60;;;;;;6218812;23;19997;-88
2021/07/18 12:12:09;;;;;;;;;;;26.40;69.90;;;;;;6219458;23;20058;-87
2021/07/18 12:14:36;;;;;;;4.90;2.42;;;26.80;69.60;;;;;;6190704;23;20213;-86
2021/07/18 12:17:07;;;;;;;5.55;2.33;;;27.20;69.10;;;;;;6193199;23;20266;-87
2021/07/18 12:19:34;;;;;;;6.75;2.50;;;27.10;70.40;;;;;;6219025;23;20001;-87
2021/07/18 12:22:24;;;;;;;6.57;2.78;;;27.10;68.90;;;;;;6219349;23;20001;-87
2021/07/18 12:24:54;;;;;;;6.35;2.90;;;26.70;70.20;;;;;;6218663;23;20015;-88
2021/07/18 12:27:29;;;;;;;6.22;2.38;;;26.60;71.20;;;;;;6218502;23;20008;-90
2021/07/18 12:29:56;;;;;;;5.80;2.22;;;27.00;69.20;;;;;;6190303;23;20012;-91
2021/07/18 12:32:33;;;;;;;6.97;2.25;;;27.40;70.30;;;;;;6218203;23;19997;-89
2021/07/18 12:35:00;;;;;;;4.50;2.00;;;27.90;68.10;;;;;;6218980;23;20003;-91
2021/07/18 12:38:21;;;;;;;4.88;2.08;;;28.30;66.30;;;;;;6218289;23;20063;-91